Time,TemperatureF,DewpointF,PressureIn,WindDirection,WindDirectionDegrees,WindSpeedMPH,WindSpeedGustMPH,Humidity,HourlyPrecipIn,Conditions,Clouds,dailyrainin,SolarRadiationWatts/m^2,SoftwareType,DateUTC
2013-02-04 00:21:00,38.0,22.0,-100.00,ENE,62,3.0,5.0,52,0.00,,,0.00,0.000000,,2013-02-04 08:21:00,
2013-02-04 00:31:00,38.0,22.0,-100.00,ENE,62,3.0,5.0,52,0.00,,,0.00,0.000000,,2013-02-04 08:31:00,
2013-02-04 00:41:00,38.0,22.0,-100.00,ENE,62,3.0,5.0,52,0.00,,,0.00,0.000000,,2013-02-04 08:41:00,
2013-02-04 00:51:00,39.0,20.0,-100.00,ENE,58,5.0,11.0,47,0.00,,,0.00,0.000000,,2013-02-04 08:51:00,
2013-02-04 01:21:00,39.0,20.0,-100.00,ENE,58,5.0,11.0,47,0.00,,,0.00,0.000000,,2013-02-04 09:21:00,
2013-02-04 01:31:00,39.0,20.0,-100.00,ENE,58,5.0,11.0,47,0.00,,,0.00,0.000000,,2013-02-04 09:31:00,
2013-02-04 01:41:00,39.0,20.0,-100.00,ENE,58,5.0,11.0,47,0.00,,,0.00,0.000000,,2013-02-04 09:41:00,
2013-02-04 01:51:00,37.0,19.0,-100.00,NE,55,4.0,14.0,47,0.00,,,0.00,0.000000,,2013-02-04 09:51:00,
2013-02-04 02:11:00,37.0,19.0,-100.00,NE,55,4.0,14.0,47,0.00,,,0.00,0.000000,,2013-02-04 10:11:00,
2013-02-04 02:21:00,37.0,19.0,-100.00,NE,55,4.0,14.0,47,0.00,,,0.00,0.000000,,2013-02-04 10:21:00,
2013-02-04 02:32:00,37.0,19.0,-100.00,NE,55,4.0,14.0,47,0.00,,,0.00,0.000000,,2013-02-04 10:32:00,
2013-02-04 02:41:00,37.0,19.0,-100.00,NE,55,4.0,14.0,47,0.00,,,0.00,0.000000,,2013-02-04 10:41:00,
2013-02-04 02:51:00,37.0,17.0,-100.00,ENE,60,5.0,11.0,44,0.00,,,0.00,0.000000,,2013-02-04 10:51:00,
2013-02-04 03:11:00,37.0,17.0,-100.00,ENE,60,5.0,11.0,44,0.00,,,0.00,0.000000,,2013-02-04 11:11:00,
2013-02-04 03:22:00,37.0,17.0,-100.00,ENE,60,5.0,11.0,44,0.00,,,0.00,0.000000,,2013-02-04 11:22:00,
2013-02-04 03:32:00,37.0,17.0,-100.00,ENE,60,5.0,11.0,44,0.00,,,0.00,0.000000,,2013-02-04 11:32:00,
2013-02-04 03:42:00,37.0,17.0,-100.00,ENE,60,5.0,11.0,44,0.00,,,0.00,0.000000,,2013-02-04 11:42:00,
2013-02-04 03:51:00,37.0,16.0,-100.00,NE,38,2.0,11.0,42,0.00,,,0.00,0.000000,,2013-02-04 11:51:00,
2013-02-04 04:12:00,37.0,16.0,-100.00,NE,38,2.0,11.0,42,0.00,,,0.00,0.000000,,2013-02-04 12:12:00,
2013-02-04 04:21:00,37.0,16.0,-100.00,NE,38,2.0,11.0,42,0.00,,,0.00,0.000000,,2013-02-04 12:21:00,
2013-02-04 04:32:00,37.0,16.0,-100.00,NE,38,2.0,11.0,42,0.00,,,0.00,0.000000,,2013-02-04 12:32:00,
2013-02-04 04:42:00,37.0,16.0,-100.00,NE,38,2.0,11.0,42,0.00,,,0.00,0.000000,,2013-02-04 12:42:00,
2013-02-04 04:51:00,37.0,15.0,-100.00,NE,43,0.0,9.0,40,0.00,,,0.00,0.000000,,2013-02-04 12:51:00,
2013-02-04 05:11:00,37.0,15.0,-100.00,NE,43,0.0,9.0,40,0.00,,,0.00,0.000000,,2013-02-04 13:11:00,
2013-02-04 05:21:00,37.0,15.0,-100.00,NE,43,0.0,9.0,40,0.00,,,0.00,0.000000,,2013-02-04 13:21:00,
2013-02-04 05:32:00,37.0,15.0,-100.00,NE,43,0.0,9.0,40,0.00,,,0.00,0.000000,,2013-02-04 13:32:00,
2013-02-04 05:41:00,37.0,15.0,-100.00,NE,43,0.0,9.0,40,0.00,,,0.00,0.000000,,2013-02-04 13:41:00,
2013-02-04 05:51:00,37.0,13.0,-100.00,ENE,58,3.0,6.0,37,0.00,,,0.00,0.000000,,2013-02-04 13:51:00,
2013-02-04 06:21:00,37.0,13.0,-100.00,ENE,58,3.0,6.0,37,0.00,,,0.00,0.000000,,2013-02-04 14:21:00,
2013-02-04 06:32:00,37.0,13.0,-100.00,ENE,58,3.0,6.0,37,0.00,,,0.00,0.000000,,2013-02-04 14:32:00,
2013-02-04 06:42:00,37.0,13.0,-100.00,ENE,58,3.0,6.0,37,0.00,,,0.00,0.000000,,2013-02-04 14:42:00,
2013-02-04 06:51:00,36.0,13.0,-100.00,NE,56,1.0,6.0,39,0.00,,,-99.99,0.000000,,2013-02-04 14:51:00,
2013-02-04 07:12:00,36.0,13.0,-100.00,NE,56,1.0,6.0,39,0.00,,,-99.99,0.000000,,2013-02-04 15:12:00,
2013-02-04 07:23:00,36.0,13.0,-100.00,NE,56,1.0,6.0,39,0.00,,,-99.99,0.000000,,2013-02-04 15:23:00,
2013-02-04 07:33:00,36.0,13.0,-100.00,NE,56,1.0,6.0,39,0.00,,,-99.99,0.000000,,2013-02-04 15:33:00,
2013-02-04 07:43:00,36.0,13.0,-100.00,NE,56,1.0,6.0,39,0.00,,,-99.99,0.000000,,2013-02-04 15:43:00,
2013-02-04 09:51:00,52.0,18.0,-100.00,NE,36,0.0,4.0,26,-99.99,,,0.00,633.000000,,2013-02-04 17:51:00,
2013-02-04 10:11:00,52.0,18.0,-100.00,NE,36,0.0,4.0,26,-99.99,,,0.00,633.000000,,2013-02-04 18:11:00,
2013-02-04 10:22:00,52.0,18.0,-100.00,NE,36,0.0,4.0,26,-99.99,,,0.00,633.000000,,2013-02-04 18:22:00,
2013-02-04 10:41:00,52.0,18.0,-100.00,NE,36,0.0,4.0,26,-99.99,,,0.00,633.000000,,2013-02-04 18:41:00,
2013-02-04 10:51:00,56.0,20.0,-100.00,SE,134,0.0,4.0,24,0.00,,,0.00,840.000000,,2013-02-04 18:51:00,
2013-02-04 11:22:00,56.0,20.0,-100.00,SE,134,0.0,4.0,24,0.00,,,0.00,840.000000,,2013-02-04 19:22:00,
2013-02-04 11:41:00,56.0,20.0,-100.00,SE,134,0.0,4.0,24,0.00,,,0.00,840.000000,,2013-02-04 19:41:00,
2013-02-04 11:51:00,54.0,18.0,-100.00,NNE,29,0.0,5.0,24,0.00,,,0.00,963.000000,,2013-02-04 19:51:00,
2013-02-04 12:12:00,54.0,18.0,-100.00,NNE,29,0.0,5.0,24,0.00,,,0.00,963.000000,,2013-02-04 20:12:00,
2013-02-04 12:21:00,54.0,18.0,-100.00,NNE,29,0.0,5.0,24,0.00,,,0.00,963.000000,,2013-02-04 20:21:00,
2013-02-04 12:42:00,54.0,18.0,-100.00,NNE,29,0.0,5.0,24,0.00,,,0.00,963.000000,,2013-02-04 20:42:00,
2013-02-04 12:51:00,55.0,19.0,-100.00,NE,44,0.0,5.0,24,0.00,,,0.00,998.000000,,2013-02-04 20:51:00,
2013-02-04 13:11:00,55.0,19.0,-100.00,NE,44,0.0,5.0,24,0.00,,,0.00,998.000000,,2013-02-04 21:11:00,
2013-02-04 13:22:00,55.0,19.0,-100.00,NE,44,0.0,5.0,24,0.00,,,0.00,998.000000,,2013-02-04 21:22:00,
2013-02-04 13:42:00,55.0,19.0,-100.00,NE,44,0.0,5.0,24,0.00,,,0.00,998.000000,,2013-02-04 21:42:00,
2013-02-04 13:51:00,51.0,21.0,-100.00,North,350,0.0,5.0,30,0.00,,,0.00,934.000000,,2013-02-04 21:51:00,
2013-02-04 14:12:00,51.0,21.0,-100.00,North,350,0.0,5.0,30,0.00,,,0.00,934.000000,,2013-02-04 22:12:00,
2013-02-04 14:21:00,51.0,21.0,-100.00,North,350,0.0,5.0,30,0.00,,,0.00,934.000000,,2013-02-04 22:21:00,
2013-02-04 14:41:00,51.0,21.0,-100.00,North,350,0.0,5.0,30,0.00,,,0.00,934.000000,,2013-02-04 22:41:00,
2013-02-04 14:51:00,48.0,19.0,-100.00,West,264,3.0,9.0,31,0.00,,,0.00,794.000000,,2013-02-04 22:51:00,
2013-02-04 15:21:00,48.0,19.0,-100.00,West,264,3.0,9.0,31,0.00,,,0.00,794.000000,,2013-02-04 23:21:00,
2013-02-04 15:32:00,48.0,19.0,-100.00,West,264,3.0,9.0,31,0.00,,,0.00,794.000000,,2013-02-04 23:32:00,
2013-02-04 15:41:00,48.0,19.0,-100.00,West,264,3.0,9.0,31,0.00,,,0.00,794.000000,,2013-02-04 23:41:00,
2013-02-04 15:51:00,42.0,18.0,-100.00,NNE,14,4.0,9.0,38,0.00,,,0.00,323.000000,,2013-02-04 23:51:00,
2013-02-04 16:21:00,42.0,18.0,-100.00,NNE,14,4.0,9.0,38,0.00,,,0.00,323.000000,,2013-02-05 00:21:00,
2013-02-04 16:31:00,42.0,18.0,-100.00,NNE,14,4.0,9.0,38,0.00,,,0.00,323.000000,,2013-02-05 00:31:00,
2013-02-04 16:41:00,42.0,18.0,-100.00,NNE,14,4.0,9.0,38,0.00,,,0.00,323.000000,,2013-02-05 00:41:00,
2013-02-04 16:51:00,43.0,17.0,-100.00,WSW,258,3.0,7.0,35,0.00,,,0.00,39.000000,,2013-02-05 00:51:00,
2013-02-04 17:11:00,43.0,17.0,-100.00,WSW,258,3.0,7.0,35,0.00,,,0.00,39.000000,,2013-02-05 01:11:00,
2013-02-04 17:21:00,43.0,17.0,-100.00,WSW,258,3.0,7.0,35,0.00,,,0.00,39.000000,,2013-02-05 01:21:00,
2013-02-04 17:32:00,43.0,17.0,-100.00,WSW,258,3.0,7.0,35,0.00,,,0.00,39.000000,,2013-02-05 01:32:00,
2013-02-04 17:42:00,43.0,17.0,-100.00,WSW,258,3.0,7.0,35,0.00,,,0.00,39.000000,,2013-02-05 01:42:00,
2013-02-04 17:51:00,42.0,12.0,-100.00,SSE,148,4.0,7.0,29,0.00,,,0.00,13.000000,,2013-02-05 01:51:00,
2013-02-04 18:21:00,42.0,12.0,-100.00,SSE,148,4.0,7.0,29,0.00,,,0.00,13.000000,,2013-02-05 02:21:00,
2013-02-04 18:31:00,42.0,12.0,-100.00,SSE,148,4.0,7.0,29,0.00,,,0.00,13.000000,,2013-02-05 02:31:00,
2013-02-04 18:41:00,42.0,12.0,-100.00,SSE,148,4.0,7.0,29,0.00,,,0.00,13.000000,,2013-02-05 02:41:00,
2013-02-04 18:51:00,42.0,10.0,-100.00,NNW,329,4.0,7.0,26,0.00,,,0.00,0.000000,,2013-02-05 02:51:00,
2013-02-04 19:21:00,42.0,10.0,-100.00,NNW,329,4.0,7.0,26,0.00,,,0.00,0.000000,,2013-02-05 03:21:00,
2013-02-04 19:31:00,42.0,10.0,-100.00,NNW,329,4.0,7.0,26,0.00,,,0.00,0.000000,,2013-02-05 03:31:00,
2013-02-04 19:41:00,42.0,10.0,-100.00,NNW,329,4.0,7.0,26,0.00,,,0.00,0.000000,,2013-02-05 03:41:00,
2013-02-04 19:51:00,42.0,9.0,-100.00,North,351,5.0,7.0,25,0.00,,,0.00,0.000000,,2013-02-05 03:51:00,
2013-02-04 20:11:00,42.0,9.0,-100.00,North,351,5.0,7.0,25,0.00,,,0.00,0.000000,,2013-02-05 04:11:00,
2013-02-04 20:21:00,42.0,9.0,-100.00,North,351,5.0,7.0,25,0.00,,,0.00,0.000000,,2013-02-05 04:21:00,
2013-02-04 20:41:00,42.0,9.0,-100.00,North,351,5.0,7.0,25,0.00,,,0.00,0.000000,,2013-02-05 04:41:00,
2013-02-04 21:11:00,41.0,6.0,-100.00,NNW,346,5.0,7.0,23,0.00,,,0.00,0.000000,,2013-02-05 05:11:00,
2013-02-04 21:21:00,41.0,6.0,-100.00,NNW,346,5.0,7.0,23,0.00,,,0.00,0.000000,,2013-02-05 05:21:00,
2013-02-04 22:21:00,42.0,9.0,-100.00,ENE,70,1.0,7.0,25,0.00,,,0.00,0.000000,,2013-02-05 06:21:00,
2013-02-04 22:31:00,42.0,9.0,-100.00,ENE,70,1.0,7.0,25,0.00,,,0.00,0.000000,,2013-02-05 06:31:00,
2013-02-04 23:11:00,43.0,6.0,-100.00,NW,323,0.0,4.0,21,0.00,,,0.00,0.000000,,2013-02-05 07:11:00,
2013-02-04 23:22:00,43.0,6.0,-100.00,NW,323,0.0,4.0,21,0.00,,,0.00,0.000000,,2013-02-05 07:22:00,